Time;durP1;ratioP1;P1;durP2;ratioP2;P2;SDS_P1;SDS_P2;PMS_P1;PMS_P2;Temp;Humidity;BMP_temperature;BMP_pressure;BME280_temperature;BME280_humidity;BME280_pressure;Samples;Min_cycle;Max_cycle;Signal;HPM_P1;HPM_P2
2023/04/26 00:02:11;;;;;;;9.85;8.98;;;;;;;;;;4929190;29;20059;-79
2023/04/26 00:04:37;;;;;;;8.80;7.90;;;;;;;;;;4926286;29;20031;-79
2023/04/26 00:07:03;;;;;;;9.93;8.98;;;;;;;;;;4930664;29;20031;-79
2023/04/26 00:09:28;;;;;;;8.95;8.15;;;;;;;;;;4936618;29;20493;-79
2023/04/26 00:11:53;;;;;;;9.05;8.00;;;;;;;;;;4929894;29;20393;-78
2023/04/26 00:14:19;;;;;;;8.73;7.82;;;;;;;;;;4933504;29;20477;-79
2023/04/26 00:16:44;;;;;;;9.73;8.82;;;;;;;;;;4928705;29;20031;-79
2023/04/26 00:19:10;;;;;;;8.43;7.63;;;;;;;;;;4944905;29;20027;-79
2023/04/26 00:21:36;;;;;;;7.82;7.03;;;;;;;;;;4932789;29;20024;-79
2023/04/26 00:24:01;;;;;;;8.63;7.85;;;;;;;;;;4927802;29;20030;-79
2023/04/26 00:26:26;;;;;;;8.52;7.75;;;;;;;;;;4941849;29;21144;-78
2023/04/26 00:28:51;;;;;;;8.40;7.45;;;;;;;;;;4937927;29;20884;-78
2023/04/26 00:31:17;;;;;;;11.07;7.10;;;;;;;;;;4941246;29;20015;-78
2023/04/26 00:33:43;;;;;;;7.35;6.75;;;;;;;;;;4929727;29;20805;-79
2023/04/26 00:36:08;;;;;;;8.48;7.68;;;;;;;;;;4925840;29;20047;-78
2023/04/26 00:38:33;;;;;;;7.60;6.80;;;;;;;;;;4945535;29;20102;-79
2023/04/26 00:40:59;;;;;;;7.97;7.17;;;;;;;;;;4928667;29;20118;-79
2023/04/26 00:43:24;;;;;;;7.85;7.10;;;;;;;;;;4944362;29;20279;-80
2023/04/26 00:45:50;;;;;;;7.55;6.82;;;;;;;;;;4933150;29;20028;-80
2023/04/26 00:48:16;;;;;;;8.05;7.00;;;;;;;;;;4927892;29;20533;-79
2023/04/26 00:50:41;;;;;;;7.82;7.03;;;;;;;;;;4944687;29;20090;-79
2023/04/26 00:53:07;;;;;;;9.15;7.07;;;;;;;;;;4943165;29;20022;-79
2023/04/26 00:55:32;;;;;;;9.85;6.25;;;;;;;;;;4934317;29;20027;-79
2023/04/26 00:57:58;;;;;;;8.38;6.32;;;;;;;;;;4940714;29;20444;-78
2023/04/26 01:00:23;;;;;;;7.97;7.07;;;;;;;;;;4931796;29;20066;-78
2023/04/26 01:02:48;;;;;;;8.13;7.43;;;;;;;;;;4945129;29;20032;-79
2023/04/26 01:05:14;;;;;;;8.77;7.88;;;;;;;;;;4927176;29;20127;-79
2023/04/26 01:07:39;;;;;;;8.52;7.47;;;;;;;;;;4940912;29;20058;-78
2023/04/26 01:10:05;;;;;;;8.07;7.28;;;;;;;;;;4944581;29;20063;-78
2023/04/26 01:12:31;;;;;;;8.40;7.43;;;;;;;;;;4940662;29;20454;-78
2023/04/26 01:14:57;;;;;;;8.23;7.53;;;;;;;;;;4928585;29;20035;-78
2023/04/26 01:17:23;;;;;;;8.55;7.47;;;;;;;;;;4922673;29;20397;-78
2023/04/26 01:19:48;;;;;;;8.18;7.47;;;;;;;;;;4940759;29;20114;-78
2023/04/26 01:22:14;;;;;;;9.07;8.27;;;;;;;;;;4934101;29;20158;-78
2023/04/26 01:24:41;;;;;;;8.90;7.85;;;;;;;;;;4937383;28;20504;-78
2023/04/26 01:27:06;;;;;;;9.82;8.30;;;;;;;;;;4937157;29;20055;-78
2023/04/26 01:29:31;;;;;;;8.88;7.93;;;;;;;;;;4937311;29;20075;-78
2023/04/26 01:31:57;;;;;;;9.45;8.48;;;;;;;;;;4940617;29;20593;-78
2023/04/26 01:34:22;;;;;;;8.80;7.95;;;;;;;;;;4926269;29;20026;-78
2023/04/26 01:36:47;;;;;;;8.85;7.93;;;;;;;;;;4944398;29;20536;-78
2023/04/26 01:39:13;;;;;;;7.97;7.15;;;;;;;;;;4929178;29;20024;-78
2023/04/26 01:41:38;;;;;;;9.32;8.40;;;;;;;;;;4935292;29;20473;-78
2023/04/26 01:44:05;;;;;;;9.15;8.35;;;;;;;;;;4924281;29;20023;-78
2023/04/26 01:46:31;;;;;;;9.52;7.97;;;;;;;;;;4930729;29;20024;-78
2023/04/26 01:48:56;;;;;;;12.55;8.70;;;;;;;;;;4940282;29;20039;-78
2023/04/26 01:51:21;;;;;;;7.97;7.15;;;;;;;;;;4935712;29;20502;-78
2023/04/26 01:53:47;;;;;;;8.35;7.55;;;;;;;;;;4936930;29;20039;-79
2023/04/26 01:56:12;;;;;;;9.02;8.07;;;;;;;;;;4937826;29;20035;-78
2023/04/26 01:58:37;;;;;;;9.43;8.52;;;;;;;;;;4942303;29;20564;-78
2023/04/26 02:01:06;;;;;;;9.05;8.25;;;;;;;;;;4914735;29;20592;-78
2023/04/26 02:03:32;;;;;;;8.82;8.13;;;;;;;;;;4936528;29;20114;-78
2023/04/26 02:05:57;;;;;;;9.85;8.95;;;;;;;;;;4943607;29;20495;-78
2023/04/26 02:08:22;;;;;;;12.13;9.35;;;;;;;;;;4928190;29;20031;-78
2023/04/26 02:10:47;;;;;;;10.00;9.10;;;;;;;;;;4939810;29;20029;-78
2023/04/26 02:13:13;;;;;;;10.38;9.38;;;;;;;;;;4929861;29;20027;-77
2023/04/26 02:15:39;;;;;;;10.32;9.20;;;;;;;;;;4939453;29;20031;-78
2023/04/26 02:18:04;;;;;;;12.15;9.25;;;;;;;;;;4943060;29;20024;-78
2023/04/26 02:20:30;;;;;;;13.90;8.43;;;;;;;;;;4933061;29;20023;-78
2023/04/26 02:22:55;;;;;;;12.63;9.57;;;;;;;;;;4918802;29;20035;-78
2023/04/26 02:25:21;;;;;;;9.48;7.30;;;;;;;;;;4938934;29;20046;-78
2023/04/26 02:27:46;;;;;;;7.25;6.55;;;;;;;;;;4924912;29;20556;-78
2023/04/26 02:30:12;;;;;;;7.88;6.75;;;;;;;;;;4938939;29;20040;-79
2023/04/26 02:32:37;;;;;;;11.70;8.27;;;;;;;;;;4923373;29;20433;-78
2023/04/26 02:35:04;;;;;;;7.80;7.10;;;;;;;;;;4939811;28;20067;-78
2023/04/26 02:37:29;;;;;;;10.07;8.20;;;;;;;;;;4911563;29;20028;-79
2023/04/26 02:39:54;;;;;;;8.93;7.85;;;;;;;;;;4936678;29;20022;-78
2023/04/26 02:42:20;;;;;;;10.65;6.85;;;;;;;;;;4941074;29;20034;-78
2023/04/26 02:44:45;;;;;;;8.13;7.43;;;;;;;;;;4941172;29;20023;-78
2023/04/26 02:47:10;;;;;;;10.60;9.45;;;;;;;;;;4932868;29;20075;-78
2023/04/26 02:49:36;;;;;;;9.98;9.07;;;;;;;;;;4925300;29;20089;-78
2023/04/26 02:52:01;;;;;;;11.20;10.10;;;;;;;;;;4942644;29;20027;-78
2023/04/26 02:54:26;;;;;;;12.45;8.52;;;;;;;;;;4940371;29;20286;-79
2023/04/26 02:56:52;;;;;;;12.70;9.82;;;;;;;;;;4928932;29;20081;-78
2023/04/26 02:59:17;;;;;;;9.40;8.50;;;;;;;;;;4914317;29;20035;-78
2023/04/26 03:01:42;;;;;;;15.18;10.68;;;;;;;;;;4940354;29;20027;-77
2023/04/26 03:04:07;;;;;;;11.15;10.10;;;;;;;;;;4936240;29;20498;-78
2023/04/26 03:06:33;;;;;;;9.10;8.30;;;;;;;;;;4925519;29;20019;-79
2023/04/26 03:08:58;;;;;;;9.57;8.68;;;;;;;;;;4938522;29;20035;-78
2023/04/26 03:11:24;;;;;;;13.02;11.63;;;;;;;;;;4940900;29;20026;-78
2023/04/26 03:13:50;;;;;;;9.57;8.70;;;;;;;;;;4927529;29;20023;-78
2023/04/26 03:16:17;;;;;;;9.77;8.77;;;;;;;;;;4942465;29;20031;-79
2023/04/26 03:18:43;;;;;;;11.50;9.82;;;;;;;;;;4926673;29;20027;-78
2023/04/26 03:21:08;;;;;;;15.60;13.45;;;;;;;;;;4911358;29;20023;-78
2023/04/26 03:23:33;;;;;;;16.40;12.93;;;;;;;;;;4919917;29;20051;-78
2023/04/26 03:25:59;;;;;;;43.08;28.70;;;;;;;;;;4926476;29;20037;-78
2023/04/26 03:28:24;;;;;;;54.85;35.38;;;;;;;;;;4940125;29;20063;-78
2023/04/26 03:30:50;;;;;;;17.65;13.27;;;;;;;;;;4941311;29;20039;-78
2023/04/26 03:33:16;;;;;;;11.68;10.57;;;;;;;;;;4931816;29;20023;-78
2023/04/26 03:35:42;;;;;;;13.98;11.65;;;;;;;;;;4923706;29;20060;-78
2023/04/26 03:38:07;;;;;;;12.25;10.85;;;;;;;;;;4935523;29;20403;-77
2023/04/26 03:40:33;;;;;;;15.00;13.45;;;;;;;;;;4926916;29;20490;-77
2023/04/26 03:42:58;;;;;;;36.22;28.00;;;;;;;;;;4932435;29;20047;-79
2023/04/26 03:45:25;;;;;;;22.30;18.63;;;;;;;;;;4932243;29;20110;-78
2023/04/26 03:47:50;;;;;;;24.63;21.58;;;;;;;;;;4934877;28;20526;-78
2023/04/26 03:50:16;;;;;;;14.95;13.38;;;;;;;;;;4933762;29;20102;-78
2023/04/26 03:52:41;;;;;;;38.75;27.83;;;;;;;;;;4922687;29;20039;-78
2023/04/26 03:55:08;;;;;;;12.00;10.70;;;;;;;;;;4936894;29;20055;-78
2023/04/26 03:57:34;;;;;;;10.55;9.45;;;;;;;;;;4940393;29;20080;-78
2023/04/26 03:59:59;;;;;;;9.43;8.63;;;;;;;;;;4941379;29;20059;-78
2023/04/26 04:02:24;;;;;;;7.80;7.20;;;;;;;;;;4931992;29;21159;-78
2023/04/26 04:04:49;;;;;;;7.45;6.72;;;;;;;;;;4933880;29;20270;-78
2023/04/26 04:07:15;;;;;;;5.63;5.18;;;;;;;;;;4925967;29;20020;-78
2023/04/26 04:09:40;;;;;;;6.55;5.88;;;;;;;;;;4934593;29;20525;-78
2023/04/26 04:12:06;;;;;;;6.78;6.28;;;;;;;;;;4940311;29;20032;-78
2023/04/26 04:14:31;;;;;;;7.00;6.40;;;;;;;;;;4940884;29;20046;-78
2023/04/26 04:16:58;;;;;;;7.97;7.17;;;;;;;;;;4938983;29;20018;-79
2023/04/26 04:19:23;;;;;;;10.07;9.18;;;;;;;;;;4940720;29;20255;-78
2023/04/26 04:21:48;;;;;;;15.13;12.85;;;;;;;;;;4941803;29;20023;-79
2023/04/26 04:24:13;;;;;;;18.13;13.87;;;;;;;;;;4930533;29;20098;-79
2023/04/26 04:26:39;;;;;;;26.23;16.27;;;;;;;;;;4923900;29;20615;-79
2023/04/26 04:29:07;;;;;;;13.40;12.00;;;;;;;;;;4941267;29;20334;-79
2023/04/26 04:31:33;;;;;;;15.13;12.63;;;;;;;;;;4940012;29;20354;-78
2023/04/26 04:33:58;;;;;;;18.75;14.00;;;;;;;;;;4939453;29;20534;-80
2023/04/26 04:36:25;;;;;;;34.80;21.13;;;;;;;;;;4938703;29;20038;-80
2023/04/26 04:38:52;;;;;;;36.95;21.58;;;;;;;;;;4951078;29;20048;-80
2023/04/26 04:41:17;;;;;;;34.55;20.98;;;;;;;;;;4954758;29;20051;-81
2023/04/26 04:43:42;;;;;;;23.55;18.17;;;;;;;;;;4949305;29;20544;-80
2023/04/26 04:46:07;;;;;;;20.10;15.73;;;;;;;;;;4953104;29;20020;-81
2023/04/26 04:48:33;;;;;;;18.83;13.80;;;;;;;;;;4932279;29;20366;-80
2023/04/26 04:50:58;;;;;;;11.75;10.60;;;;;;;;;;4942131;29;20654;-80
2023/04/26 04:53:23;;;;;;;11.18;10.25;;;;;;;;;;4938911;29;20030;-79
2023/04/26 04:55:49;;;;;;;10.85;9.80;;;;;;;;;;4944309;29;20027;-77
2023/04/26 04:58:15;;;;;;;9.15;8.45;;;;;;;;;;4952754;28;20031;-81
2023/04/26 05:00:40;;;;;;;8.50;7.90;;;;;;;;;;4941585;29;20086;-80
2023/04/26 05:03:08;;;;;;;8.20;7.60;;;;;;;;;;4946502;29;20590;-85
2023/04/26 05:05:33;;;;;;;8.80;8.10;;;;;;;;;;4932683;29;20020;-83
2023/04/26 05:07:59;;;;;;;6.20;5.80;;;;;;;;;;4926471;29;20789;-82
2023/04/26 05:10:25;;;;;;;8.55;7.95;;;;;;;;;;4936043;29;20019;-80
2023/04/26 05:12:50;;;;;;;8.68;8.00;;;;;;;;;;4940052;29;20095;-80
2023/04/26 05:15:15;;;;;;;8.48;7.68;;;;;;;;;;4932491;29;20492;-80
2023/04/26 05:17:41;;;;;;;8.32;7.70;;;;;;;;;;4910463;29;20023;-80
2023/04/26 05:20:07;;;;;;;9.57;8.70;;;;;;;;;;4936439;29;20015;-80
2023/04/26 05:22:35;;;;;;;10.10;9.40;;;;;;;;;;4916232;29;20262;-80
2023/04/26 05:25:00;;;;;;;11.43;10.43;;;;;;;;;;4943435;29;20038;-80
2023/04/26 05:27:27;;;;;;;16.02;14.82;;;;;;;;;;4937383;29;20036;-80
2023/04/26 05:29:52;;;;;;;12.82;11.77;;;;;;;;;;4933185;29;20076;-80
2023/04/26 05:32:17;;;;;;;14.27;12.98;;;;;;;;;;4943317;29;20050;-80
2023/04/26 05:34:43;;;;;;;11.77;10.77;;;;;;;;;;4937136;29;20503;-80
2023/04/26 05:37:08;;;;;;;11.50;10.47;;;;;;;;;;4939864;29;20464;-79
2023/04/26 05:39:33;;;;;;;12.85;11.85;;;;;;;;;;4913085;29;20358;-79
2023/04/26 05:41:58;;;;;;;10.13;9.30;;;;;;;;;;4913620;29;20130;-80
2023/04/26 05:44:24;;;;;;;10.15;9.25;;;;;;;;;;4913695;29;20022;-80
2023/04/26 05:46:49;;;;;;;10.80;10.00;;;;;;;;;;4948346;29;20370;-80
2023/04/26 05:49:15;;;;;;;11.00;10.00;;;;;;;;;;4947548;29;20496;-80
2023/04/26 05:51:40;;;;;;;10.07;9.27;;;;;;;;;;4941899;29;20016;-77
2023/04/26 05:54:05;;;;;;;10.68;9.68;;;;;;;;;;4911343;29;20083;-79
2023/04/26 05:56:31;;;;;;;11.43;10.27;;;;;;;;;;4931151;29;20035;-80
2023/04/26 05:58:56;;;;;;;9.85;9.02;;;;;;;;;;4946323;29;20070;-80
2023/04/26 06:01:22;;;;;;;10.20;9.40;;;;;;;;;;4916491;29;20432;-80
2023/04/26 06:03:47;;;;;;;9.43;8.63;;;;;;;;;;4930934;29;20042;-80
2023/04/26 06:06:14;;;;;;;10.48;9.48;;;;;;;;;;4935624;29;20058;-80
2023/04/26 06:08:39;;;;;;;10.35;9.50;;;;;;;;;;4915411;29;20078;-80
2023/04/26 06:11:04;;;;;;;10.45;9.45;;;;;;;;;;4947936;28;20055;-80
2023/04/26 06:13:30;;;;;;;14.02;11.13;;;;;;;;;;4933587;29;20024;-80
2023/04/26 06:15:55;;;;;;;11.52;10.52;;;;;;;;;;4934279;29;20028;-80
2023/04/26 06:18:20;;;;;;;12.02;10.73;;;;;;;;;;4937279;29;20085;-77
2023/04/26 06:20:46;;;;;;;11.43;10.38;;;;;;;;;;4929407;29;20019;-77
2023/04/26 06:23:11;;;;;;;10.93;10.00;;;;;;;;;;4927046;29;20433;-77
2023/04/26 06:25:37;;;;;;;11.20;10.20;;;;;;;;;;4917865;29;20461;-79
2023/04/26 06:28:02;;;;;;;10.23;9.43;;;;;;;;;;4925887;29;20490;-79
2023/04/26 06:30:28;;;;;;;10.85;9.75;;;;;;;;;;4924337;29;20418;-80
2023/04/26 06:32:53;;;;;;;9.70;8.75;;;;;;;;;;4927605;29;20016;-80
2023/04/26 06:35:18;;;;;;;10.75;9.65;;;;;;;;;;4925238;29;20015;-80
2023/04/26 06:37:43;;;;;;;9.88;8.98;;;;;;;;;;4935052;29;20949;-79
2023/04/26 06:40:09;;;;;;;10.40;9.20;;;;;;;;;;4935939;29;20035;-77
2023/04/26 06:42:35;;;;;;;9.98;8.52;;;;;;;;;;4934334;29;20033;-76
2023/04/26 06:45:00;;;;;;;10.93;9.80;;;;;;;;;;4921187;29;20031;-77
2023/04/26 06:47:26;;;;;;;10.55;9.75;;;;;;;;;;4934168;29;20114;-81
2023/04/26 06:49:51;;;;;;;9.88;9.07;;;;;;;;;;4935420;29;20023;-81
2023/04/26 06:52:16;;;;;;;9.70;8.97;;;;;;;;;;4929026;29;20063;-80
2023/04/26 06:54:41;;;;;;;10.63;9.73;;;;;;;;;;4931726;29;20287;-81
2023/04/26 06:57:07;;;;;;;10.43;9.50;;;;;;;;;;4931152;29;20023;-81
2023/04/26 06:59:32;;;;;;;9.93;8.40;;;;;;;;;;4935263;29;21396;-79
2023/04/26 07:01:58;;;;;;;9.40;8.57;;;;;;;;;;4917063;29;20286;-79
2023/04/26 07:04:23;;;;;;;7.03;6.53;;;;;;;;;;4909054;29;20283;-79
2023/04/26 07:06:49;;;;;;;7.67;7.07;;;;;;;;;;4917586;29;20062;-81
2023/04/26 07:09:14;;;;;;;7.90;7.13;;;;;;;;;;4936985;29;20291;-78
2023/04/26 07:11:39;;;;;;;7.82;7.22;;;;;;;;;;4921101;29;20664;-80
2023/04/26 07:14:05;;;;;;;6.30;5.90;;;;;;;;;;4930791;29;20281;-76
2023/04/26 07:16:30;;;;;;;6.18;5.78;;;;;;;;;;4926704;29;20069;-77
2023/04/26 07:18:59;;;;;;;7.43;6.72;;;;;;;;;;4935886;29;20034;-81
2023/04/26 07:21:25;;;;;;;;;;;;;;;;;;4926165;29;20075;-79
2023/04/26 07:23:57;;;;;;;6.07;5.47;;;;;;;;;;4931562;29;20368;-80
2023/04/26 07:26:23;;;;;;;7.10;6.60;;;;;;;;;;4940046;29;20070;-79
2023/04/26 07:28:52;;;;;;;7.10;6.50;;;;;;;;;;4912064;29;20529;-81
2023/04/26 07:31:18;;;;;;;6.28;5.78;;;;;;;;;;4920110;29;20146;-79
2023/04/26 07:33:43;;;;;;;6.57;6.07;;;;;;;;;;4922477;29;20094;-79
2023/04/26 07:36:08;;;;;;;6.57;5.97;;;;;;;;;;4922460;29;20457;-79
2023/04/26 07:38:34;;;;;;;7.18;6.57;;;;;;;;;;4922965;29;20015;-78
2023/04/26 07:41:00;;;;;;;6.43;5.93;;;;;;;;;;4939025;29;20094;-79
2023/04/26 07:43:25;;;;;;;5.78;5.28;;;;;;;;;;4937688;29;20509;-78
2023/04/26 07:45:51;;;;;;;5.93;5.53;;;;;;;;;;4931975;29;20034;-77
2023/04/26 07:48:16;;;;;;;6.03;5.60;;;;;;;;;;4939625;29;20509;-78
2023/04/26 07:50:41;;;;;;;7.00;4.90;;;;;;;;;;4913473;29;20031;-77
2023/04/26 07:53:07;;;;;;;6.97;6.27;;;;;;;;;;4911088;29;20263;-81
2023/04/26 07:55:32;;;;;;;6.68;6.18;;;;;;;;;;4923044;29;20429;-80
2023/04/26 07:57:57;;;;;;;5.72;5.30;;;;;;;;;;4921359;29;20123;-78
2023/04/26 08:00:23;;;;;;;5.13;4.78;;;;;;;;;;4914136;29;20062;-76
2023/04/26 08:02:48;;;;;;;4.10;3.80;;;;;;;;;;4903903;29;20126;-79
2023/04/26 08:05:14;;;;;;;3.88;3.67;;;;;;;;;;4912540;29;20024;-78
2023/04/26 08:07:40;;;;;;;7.68;3.50;;;;;;;;;;4930740;29;20023;-78
2023/04/26 08:10:05;;;;;;;4.07;3.15;;;;;;;;;;4930235;29;20032;-77
2023/04/26 08:12:32;;;;;;;3.53;3.25;;;;;;;;;;4936084;29;20498;-78
2023/04/26 08:14:58;;;;;;;3.53;3.22;;;;;;;;;;4911099;29;20023;-77
2023/04/26 08:17:24;;;;;;;3.70;3.30;;;;;;;;;;4926429;29;20508;-75
2023/04/26 08:19:49;;;;;;;4.00;3.70;;;;;;;;;;4936263;29;20035;-77
2023/04/26 08:22:14;;;;;;;4.00;3.80;;;;;;;;;;4929130;29;20369;-79
2023/04/26 08:24:39;;;;;;;3.92;3.63;;;;;;;;;;4920881;29;20289;-79
2023/04/26 08:27:05;;;;;;;4.63;3.33;;;;;;;;;;4918978;29;20031;-76
2023/04/26 08:29:30;;;;;;;4.97;4.40;;;;;;;;;;4916602;29;20358;-76
2023/04/26 08:31:56;;;;;;;3.88;3.58;;;;;;;;;;4933897;29;20028;-78
2023/04/26 08:34:21;;;;;;;9.07;4.43;;;;;;;;;;4933879;28;20023;-79
2023/04/26 08:36:46;;;;;;;4.63;4.32;;;;;;;;;;4921200;29;20030;-79
2023/04/26 08:39:12;;;;;;;4.90;4.50;;;;;;;;;;4939142;29;20050;-76
2023/04/26 08:41:47;;;;;;;4.35;4.05;;;;;;;;;;4926616;29;20042;-79
2023/04/26 08:44:13;;;;;;;4.47;4.07;;;;;;;;;;4924911;29;20038;-79
2023/04/26 08:46:54;;;;;;;4.50;4.20;;;;;;;;;;4926182;29;20031;-77
2023/04/26 08:49:39;;;;;;;5.00;4.60;;;;;;;;;;4942834;29;20027;-78
2023/04/26 08:52:07;;;;;;;4.47;4.15;;;;;;;;;;4942913;29;20031;-76
2023/04/26 08:54:33;;;;;;;8.20;4.93;;;;;;;;;;4943399;29;20446;-80
2023/04/26 08:56:59;;;;;;;4.38;4.07;;;;;;;;;;4939908;29;20383;-78
2023/04/26 08:59:25;;;;;;;4.70;4.40;;;;;;;;;;4941613;29;20030;-79
2023/04/26 09:01:51;;;;;;;4.82;4.43;;;;;;;;;;4942003;29;20094;-78
2023/04/26 09:04:16;;;;;;;5.63;4.32;;;;;;;;;;4923635;29;20446;-77
2023/04/26 09:06:42;;;;;;;5.07;4.77;;;;;;;;;;4912652;29;20069;-84
2023/04/26 09:09:08;;;;;;;6.10;5.50;;;;;;;;;;4928650;29;20298;-79
2023/04/26 09:11:52;;;;;;;5.68;4.88;;;;;;;;;;4942575;29;20019;-82
2023/04/26 09:14:18;;;;;;;4.85;4.35;;;;;;;;;;4935499;29;20075;-84
2023/04/26 09:16:43;;;;;;;5.28;4.75;;;;;;;;;;4934739;29;20454;-79
2023/04/26 09:19:09;;;;;;;5.28;4.88;;;;;;;;;;4924376;29;20023;-78
2023/04/26 09:21:41;;;;;;;5.07;4.78;;;;;;;;;;4942413;29;20022;-80
2023/04/26 09:24:06;;;;;;;5.35;4.90;;;;;;;;;;4941431;29;20031;-80
2023/04/26 09:26:31;;;;;;;5.22;4.80;;;;;;;;;;4941586;29;20029;-83
2023/04/26 09:29:16;;;;;;;5.22;4.82;;;;;;;;;;4939923;29;20043;-78
2023/04/26 09:31:43;;;;;;;4.93;4.60;;;;;;;;;;4933075;29;20016;-79
2023/04/26 09:34:09;;;;;;;5.93;4.63;;;;;;;;;;4920102;29;20024;-79
2023/04/26 09:36:51;;;;;;;6.68;4.72;;;;;;;;;;4922861;29;20022;-78
2023/04/26 09:39:36;;;;;;;5.00;4.60;;;;;;;;;;4941293;29;20117;-79
2023/04/26 09:42:02;;;;;;;4.60;4.25;;;;;;;;;;4924121;29;20058;-80
2023/04/26 09:44:28;;;;;;;7.28;4.88;;;;;;;;;;4940950;28;20786;-79
2023/04/26 09:47:00;;;;;;;4.32;3.97;;;;;;;;;;4942318;29;20086;-78
2023/04/26 09:49:30;;;;;;;5.28;4.72;;;;;;;;;;4940505;29;20134;-81
2023/04/26 09:51:59;;;;;;;4.15;3.75;;;;;;;;;;4911010;29;20122;-78
2023/04/26 09:54:36;;;;;;;4.47;4.10;;;;;;;;;;4940154;29;20035;-79
2023/04/26 09:57:01;;;;;;;4.55;4.13;;;;;;;;;;4926974;29;20027;-79
2023/04/26 09:59:37;;;;;;;3.45;3.25;;;;;;;;;;4924414;29;20029;-78
2023/04/26 10:02:03;;;;;;;3.53;3.33;;;;;;;;;;4941790;29;20869;-78
2023/04/26 10:04:28;;;;;;;3.58;3.28;;;;;;;;;;4940857;29;20011;-77
2023/04/26 10:06:54;;;;;;;4.07;3.40;;;;;;;;;;4907238;29;20027;-81
2023/04/26 10:09:19;;;;;;;3.47;3.20;;;;;;;;;;4934573;29;20066;-79
2023/04/26 10:11:44;;;;;;;3.22;3.03;;;;;;;;;;4904563;29;20071;-80
2023/04/26 10:14:10;;;;;;;3.22;2.85;;;;;;;;;;4914388;29;20044;-80
2023/04/26 10:16:36;;;;;;;3.45;3.25;;;;;;;;;;4918928;29;20046;-85
2023/04/26 10:19:02;;;;;;;4.75;3.10;;;;;;;;;;4911086;29;20027;-78
2023/04/26 10:21:30;;;;;;;4.63;3.22;;;;;;;;;;4926595;29;20444;-81
2023/04/26 10:23:56;;;;;;;3.65;3.08;;;;;;;;;;4907315;29;20480;-78
2023/04/26 10:26:40;;;;;;;3.22;2.90;;;;;;;;;;4926970;29;20514;-78
2023/04/26 10:29:06;;;;;;;3.20;2.90;;;;;;;;;;4939431;29;20059;-77
2023/04/26 10:31:50;;;;;;;6.43;3.10;;;;;;;;;;4911523;29;20075;-80
2023/04/26 10:34:19;;;;;;;3.45;3.15;;;;;;;;;;4908753;29;20410;-78
2023/04/26 10:36:45;;;;;;;;;;;;;;;;;;4935346;29;20144;-77
2023/04/26 10:39:19;;;;;;;4.15;2.97;;;;;;;;;;4920108;29;19906;-77
2023/04/26 10:41:44;;;;;;;3.15;2.83;;;;;;;;;;4933879;29;20019;-78
2023/04/26 10:44:28;;;;;;;4.05;2.92;;;;;;;;;;4940431;29;20508;-81
2023/04/26 10:46:53;;;;;;;2.38;2.28;;;;;;;;;;4932392;29;20027;-78
2023/04/26 10:49:21;;;;;;;1.85;1.75;;;;;;;;;;4912023;29;20027;-76
2023/04/26 10:52:05;;;;;;;1.90;1.80;;;;;;;;;;4924412;29;20058;-80
2023/04/26 10:54:43;;;;;;;2.05;1.95;;;;;;;;;;4921218;29;20142;-80
2023/04/26 10:57:09;;;;;;;1.55;1.33;;;;;;;;;;4932847;29;20022;-77
2023/04/26 10:59:34;;;;;;;1.63;1.50;;;;;;;;;;4915370;29;20031;-81
2023/04/26 11:01:59;;;;;;;1.60;1.48;;;;;;;;;;4932208;29;20031;-81
2023/04/26 11:04:45;;;;;;;1.77;1.48;;;;;;;;;;4917227;29;20101;-81
2023/04/26 11:07:12;;;;;;;1.70;1.60;;;;;;;;;;4906761;29;20019;-79
2023/04/26 11:09:39;;;;;;;3.05;1.52;;;;;;;;;;4916262;29;20453;-79
2023/04/26 11:12:14;;;;;;;1.92;1.70;;;;;;;;;;4940416;29;20015;-80
2023/04/26 11:14:44;;;;;;;1.65;1.52;;;;;;;;;;4908150;29;20027;-80
2023/04/26 11:17:10;;;;;;;1.63;1.52;;;;;;;;;;4911412;29;20497;-80
2023/04/26 11:19:36;;;;;;;1.52;1.42;;;;;;;;;;4927066;29;20070;-82
2023/04/26 11:22:02;;;;;;;2.45;1.58;;;;;;;;;;4940199;29;20167;-81
2023/04/26 11:24:28;;;;;;;1.25;1.15;;;;;;;;;;4939598;29;20095;-82
2023/04/26 11:26:54;;;;;;;1.20;1.10;;;;;;;;;;4930754;29;20944;-84
2023/04/26 11:29:20;;;;;;;4.78;1.05;;;;;;;;;;4925476;29;20115;-83
2023/04/26 11:31:52;;;;;;;1.60;1.13;;;;;;;;;;4919882;29;20027;-89
2023/04/26 11:34:19;;;;;;;1.02;0.90;;;;;;;;;;4919499;29;20031;-88
2023/04/26 11:36:45;;;;;;;1.92;1.00;;;;;;;;;;4938463;29;20035;-82
2023/04/26 11:39:10;;;;;;;1.52;1.10;;;;;;;;;;4966197;29;20055;-80
2023/04/26 11:41:36;;;;;;;1.60;1.50;;;;;;;;;;4944603;29;20082;-85
2023/04/26 11:44:01;;;;;;;1.40;1.10;;;;;;;;;;4931298;29;20037;-83
2023/04/26 11:46:26;;;;;;;1.42;1.33;;;;;;;;;;4945696;29;20066;-79
2023/04/26 11:48:52;;;;;;;2.17;1.15;;;;;;;;;;4958726;29;20027;-81
2023/04/26 11:51:18;;;;;;;3.42;1.20;;;;;;;;;;4950815;29;20079;-80
2023/04/26 11:53:44;;;;;;;2.28;1.42;;;;;;;;;;4917636;29;20402;-83
2023/04/26 11:56:29;;;;;;;1.80;1.70;;;;;;;;;;4914501;29;20114;-88
2023/04/26 11:58:57;;;;;;;2.53;1.42;;;;;;;;;;4915648;29;20030;-85
2023/04/26 12:01:26;;;;;;;1.13;1.05;;;;;;;;;;4904842;29;20050;-85
2023/04/26 12:03:52;;;;;;;2.25;1.00;;;;;;;;;;4919410;29;20130;-84
2023/04/26 12:06:17;;;;;;;1.80;1.70;;;;;;;;;;4921917;29;20375;-78
2023/04/26 12:08:48;;;;;;;1.75;1.65;;;;;;;;;;4916401;29;20035;-82
2023/04/26 12:11:15;;;;;;;1.63;1.00;;;;;;;;;;4911036;29;20028;-84
2023/04/26 12:13:40;;;;;;;1.45;1.30;;;;;;;;;;4903266;29;20027;-85
2023/04/26 12:16:11;;;;;;;1.80;1.70;;;;;;;;;;4922362;29;20031;-80
2023/04/26 12:18:36;;;;;;;1.90;1.77;;;;;;;;;;4915286;29;20038;-84
2023/04/26 12:21:01;;;;;;;1.70;1.08;;;;;;;;;;4920448;29;20028;-80
2023/04/26 12:23:35;;;;;;;1.38;1.27;;;;;;;;;;4932939;29;20618;-83
2023/04/26 12:26:02;;;;;;;2.65;1.38;;;;;;;;;;4920206;29;20062;-83
2023/04/26 12:28:28;;;;;;;2.15;1.20;;;;;;;;;;4918546;29;21010;-80
2023/04/26 12:30:53;;;;;;;1.50;1.20;;;;;;;;;;4907821;29;20111;-78
2023/04/26 12:33:21;;;;;;;2.63;1.50;;;;;;;;;;4917889;29;20102;-80
2023/04/26 12:35:47;;;;;;;2.40;1.17;;;;;;;;;;4939632;29;20023;-82
2023/04/26 12:38:14;;;;;;;1.95;1.40;;;;;;;;;;4939877;29;20654;-81
2023/04/26 12:40:40;;;;;;;4.70;1.58;;;;;;;;;;4939041;29;20071;-79
2023/04/26 12:43:06;;;;;;;2.95;1.70;;;;;;;;;;4930484;29;20056;-79
2023/04/26 12:45:31;;;;;;;1.95;1.50;;;;;;;;;;4934976;29;20500;-81
2023/04/26 12:47:56;;;;;;;1.30;1.20;;;;;;;;;;4924517;29;20039;-81
2023/04/26 12:50:22;;;;;;;1.50;1.17;;;;;;;;;;4935530;29;20093;-79
2023/04/26 12:52:47;;;;;;;1.48;1.33;;;;;;;;;;4930356;29;21225;-80
2023/04/26 12:55:13;;;;;;;1.55;1.35;;;;;;;;;;4920357;29;20034;-78
2023/04/26 12:57:40;;;;;;;2.33;1.02;;;;;;;;;;4934134;29;20023;-78
2023/04/26 13:00:06;;;;;;;1.67;1.23;;;;;;;;;;4937017;29;20019;-81
2023/04/26 13:02:32;;;;;;;2.75;1.38;;;;;;;;;;4926864;29;20597;-78
2023/04/26 13:05:00;;;;;;;3.40;1.10;;;;;;;;;;4927311;29;20490;-78
2023/04/26 13:07:25;;;;;;;2.22;1.40;;;;;;;;;;4941900;29;20024;-77
2023/04/26 13:09:51;;;;;;;1.70;1.60;;;;;;;;;;4928830;29;20416;-78
2023/04/26 13:12:16;;;;;;;2.78;1.52;;;;;;;;;;4924684;29;20107;-79
2023/04/26 13:14:42;;;;;;;1.55;1.45;;;;;;;;;;4950150;29;20501;-79
2023/04/26 13:17:08;;;;;;;2.33;1.58;;;;;;;;;;4960172;29;20027;-79
2023/04/26 13:19:36;;;;;;;2.47;1.40;;;;;;;;;;4952165;29;20019;-79
2023/04/26 13:22:03;;;;;;;3.40;1.30;;;;;;;;;;5013346;23;20047;-81
2023/04/26 13:24:34;;;;;;;5.50;1.52;;;;;;;;;;4924724;29;20036;-78
2023/04/26 13:27:00;;;;;;;1.40;1.30;;;;;;;;;;4934357;29;20067;-78
2023/04/26 13:29:26;;;;;;;2.38;1.48;;;;;;;;;;4914611;29;20064;-80
2023/04/26 13:31:51;;;;;;;1.52;1.30;;;;;;;;;;4919925;29;20110;-80
2023/04/26 13:34:17;;;;;;;2.03;1.60;;;;;;;;;;4922369;29;20012;-78
2023/04/26 13:36:43;;;;;;;1.65;1.27;;;;;;;;;;4939942;29;20031;-80
2023/04/26 13:39:09;;;;;;;2.25;1.80;;;;;;;;;;4940852;29;20020;-79
2023/04/26 13:41:34;;;;;;;2.58;1.60;;;;;;;;;;4939868;29;20015;-79
2023/04/26 13:44:00;;;;;;;5.75;1.80;;;;;;;;;;4924273;29;20020;-79
2023/04/26 13:46:26;;;;;;;1.50;1.38;;;;;;;;;;4940145;28;20017;-79
2023/04/26 13:48:54;;;;;;;1.70;1.60;;;;;;;;;;4919254;29;20060;-78
2023/04/26 13:51:28;;;;;;;2.63;1.77;;;;;;;;;;4930741;28;20028;-79
2023/04/26 13:53:55;;;;;;;1.88;1.75;;;;;;;;;;4941809;28;20024;-79
2023/04/26 13:56:21;;;;;;;2.03;1.90;;;;;;;;;;4915397;29;20039;-80
2023/04/26 13:58:46;;;;;;;2.38;2.17;;;;;;;;;;4919248;29;20032;-80
2023/04/26 14:01:12;;;;;;;2.88;2.03;;;;;;;;;;4923285;29;20021;-79
2023/04/26 14:03:40;;;;;;;1.90;1.80;;;;;;;;;;4923715;29;20072;-81
2023/04/26 14:11:15;;;;;;;3.90;2.25;;;;;;;;;;5110691;23;20119;-81
2023/04/26 14:13:41;;;;;;;3.03;2.80;;;;;;;;;;4937884;29;20055;-79
2023/04/26 14:16:07;;;;;;;4.03;2.75;;;;;;;;;;4948130;29;20046;-80
2023/04/26 14:18:33;;;;;;;3.63;2.55;;;;;;;;;;4953694;28;20015;-80
2023/04/26 14:20:58;;;;;;;2.78;2.58;;;;;;;;;;4959200;28;20027;-80
2023/04/26 14:23:24;;;;;;;2.95;2.67;;;;;;;;;;4971058;23;20031;-80
2023/04/26 14:25:52;;;;;;;3.95;3.00;;;;;;;;;;4958773;28;20023;-82
2023/04/26 14:28:17;;;;;;;3.38;2.75;;;;;;;;;;4937427;29;20034;-80
2023/04/26 14:30:43;;;;;;;3.45;3.17;;;;;;;;;;4939230;29;20024;-80
2023/04/26 14:33:08;;;;;;;2.97;2.78;;;;;;;;;;4945207;29;20027;-81
2023/04/26 14:35:34;;;;;;;4.38;3.13;;;;;;;;;;4944873;29;20485;-80
2023/04/26 14:38:00;;;;;;;3.90;3.20;;;;;;;;;;4948460;29;20039;-80
2023/04/26 14:40:25;;;;;;;3.33;3.13;;;;;;;;;;4954048;28;20027;-80